sensor_id;sensor_type;location;lat;lon;timestamp;pressure;altitude;pressure_sealevel;temperature;humidity
24302;BME280;12421;49.732;20.078;2024-02-23T00:02:52;95038.22;;;9.18;65.75
24302;BME280;12421;49.732;20.078;2024-02-23T00:12:57;95034.73;;;9.17;66.65
24302;BME280;12421;49.732;20.078;2024-02-23T00:23:01;95037.73;;;9.07;67.90
24302;BME280;12421;49.732;20.078;2024-02-23T00:33:04;95042.00;;;9.00;68.38
24302;BME280;12421;49.732;20.078;2024-02-23T00:43:08;95038.32;;;9.01;68.82
24302;BME280;12421;49.732;20.078;2024-02-23T00:53:11;95036.07;;;8.95;70.10
24302;BME280;12421;49.732;20.078;2024-02-23T01:03:14;95031.59;;;8.93;71.32
24302;BME280;12421;49.732;20.078;2024-02-23T01:13:18;95028.01;;;8.85;72.64
24302;BME280;12421;49.732;20.078;2024-02-23T01:23:21;95024.77;;;8.73;73.66
24302;BME280;12421;49.732;20.078;2024-02-23T01:33:24;95025.32;;;8.57;74.54
24302;BME280;12421;49.732;20.078;2024-02-23T01:43:28;95024.80;;;8.52;75.27
24302;BME280;12421;49.732;20.078;2024-02-23T01:53:31;95009.54;;;8.48;75.55
24302;BME280;12421;49.732;20.078;2024-02-23T02:03:37;94999.80;;;8.30;76.34
24302;BME280;12421;49.732;20.078;2024-02-23T02:13:41;94992.91;;;8.16;76.33
24302;BME280;12421;49.732;20.078;2024-02-23T02:23:44;95003.55;;;8.17;74.92
24302;BME280;12421;49.732;20.078;2024-02-23T02:33:47;94988.55;;;8.10;74.57
24302;BME280;12421;49.732;20.078;2024-02-23T02:43:50;94989.41;;;8.16;73.57
24302;BME280;12421;49.732;20.078;2024-02-23T02:53:54;94989.07;;;8.27;72.91
24302;BME280;12421;49.732;20.078;2024-02-23T03:03:57;94991.92;;;8.36;72.27
24302;BME280;12421;49.732;20.078;2024-02-23T03:14:00;94990.05;;;8.40;72.13
24302;BME280;12421;49.732;20.078;2024-02-23T03:24:04;94992.77;;;8.42;72.23
24302;BME280;12421;49.732;20.078;2024-02-23T03:34:07;94991.46;;;8.39;72.31
24302;BME280;12421;49.732;20.078;2024-02-23T03:44:11;94993.10;;;8.32;72.34
24302;BME280;12421;49.732;20.078;2024-02-23T03:54:14;95003.17;;;8.29;72.53
24302;BME280;12421;49.732;20.078;2024-02-23T04:04:17;95009.34;;;8.33;72.21
24302;BME280;12421;49.732;20.078;2024-02-23T04:14:20;95007.00;;;8.40;71.50
24302;BME280;12421;49.732;20.078;2024-02-23T04:24:24;95008.98;;;8.54;71.27
24302;BME280;12421;49.732;20.078;2024-02-23T04:34:29;95011.38;;;8.56;71.69
24302;BME280;12421;49.732;20.078;2024-02-23T04:44:32;95023.94;;;8.62;71.35
24302;BME280;12421;49.732;20.078;2024-02-23T04:54:35;95030.20;;;8.68;71.27
24302;BME280;12421;49.732;20.078;2024-02-23T05:04:38;95035.41;;;8.64;72.47
24302;BME280;12421;49.732;20.078;2024-02-23T05:14:42;95046.02;;;8.61;73.55
24302;BME280;12421;49.732;20.078;2024-02-23T05:24:45;95048.14;;;8.55;74.48
24302;BME280;12421;49.732;20.078;2024-02-23T05:34:48;95058.11;;;8.55;75.30
24302;BME280;12421;49.732;20.078;2024-02-23T05:44:54;95075.29;;;8.42;75.46
24302;BME280;12421;49.732;20.078;2024-02-23T05:54:58;95085.80;;;8.36;75.56
24302;BME280;12421;49.732;20.078;2024-02-23T06:05:04;95102.50;;;8.38;75.61
24302;BME280;12421;49.732;20.078;2024-02-23T06:15:08;95113.23;;;8.47;75.73
24302;BME280;12421;49.732;20.078;2024-02-23T06:25:12;95124.48;;;8.46;75.72
24302;BME280;12421;49.732;20.078;2024-02-23T06:35:15;95145.34;;;8.61;76.42
24302;BME280;12421;49.732;20.078;2024-02-23T06:45:18;95156.45;;;8.85;76.53
24302;BME280;12421;49.732;20.078;2024-02-23T06:55:22;95157.47;;;9.07;76.43
24302;BME280;12421;49.732;20.078;2024-02-23T07:05:25;95170.34;;;9.20;76.49
24302;BME280;12421;49.732;20.078;2024-02-23T07:15:28;95177.19;;;9.29;75.62
24302;BME280;12421;49.732;20.078;2024-02-23T07:25:32;95183.66;;;9.34;75.08
24302;BME280;12421;49.732;20.078;2024-02-23T07:35:36;95188.77;;;9.44;74.97
24302;BME280;12421;49.732;20.078;2024-02-23T07:45:39;95208.98;;;9.51;74.33
24302;BME280;12421;49.732;20.078;2024-02-23T07:55:43;95216.54;;;9.41;74.92
24302;BME280;12421;49.732;20.078;2024-02-23T08:05:46;95232.71;;;9.39;76.38
24302;BME280;12421;49.732;20.078;2024-02-23T08:15:49;95244.13;;;9.54;77.11
24302;BME280;12421;49.732;20.078;2024-02-23T08:25:52;95255.38;;;9.63;77.20
24302;BME280;12421;49.732;20.078;2024-02-23T08:35:56;95275.06;;;9.71;77.16
24302;BME280;12421;49.732;20.078;2024-02-23T08:46:00;95287.39;;;9.74;77.40
24302;BME280;12421;49.732;20.078;2024-02-23T08:56:11;95289.89;;;9.88;77.45
24302;BME280;12421;49.732;20.078;2024-02-23T09:06:15;95296.09;;;9.91;77.50
24302;BME280;12421;49.732;20.078;2024-02-23T09:16:18;95301.61;;;9.94;77.30
24302;BME280;12421;49.732;20.078;2024-02-23T09:26:22;95311.70;;;10.01;77.57
24302;BME280;12421;49.732;20.078;2024-02-23T09:36:25;95320.50;;;10.16;77.43
24302;BME280;12421;49.732;20.078;2024-02-23T09:46:29;95331.70;;;10.26;77.03
24302;BME280;12421;49.732;20.078;2024-02-23T09:56:32;95350.16;;;10.45;76.82
24302;BME280;12421;49.732;20.078;2024-02-23T10:06:36;95359.92;;;10.56;76.59
24302;BME280;12421;49.732;20.078;2024-02-23T10:16:40;95362.13;;;10.67;76.15
24302;BME280;12421;49.732;20.078;2024-02-23T10:26:44;95350.28;;;10.93;76.06
24302;BME280;12421;49.732;20.078;2024-02-23T10:36:47;95353.89;;;11.14;75.63
24302;BME280;12421;49.732;20.078;2024-02-23T10:46:54;95358.77;;;11.38;75.04
24302;BME280;12421;49.732;20.078;2024-02-23T10:56:58;95354.52;;;11.61;74.35
24302;BME280;12421;49.732;20.078;2024-02-23T11:07:01;95357.27;;;11.62;73.46
24302;BME280;12421;49.732;20.078;2024-02-23T11:17:18;95370.88;;;11.60;73.63
24302;BME280;12421;49.732;20.078;2024-02-23T11:27:24;95377.63;;;11.72;73.42
24302;BME280;12421;49.732;20.078;2024-02-23T11:37:28;95378.40;;;11.66;73.01
24302;BME280;12421;49.732;20.078;2024-02-23T11:47:32;95379.61;;;11.66;72.25
24302;BME280;12421;49.732;20.078;2024-02-23T11:57:39;95380.42;;;11.59;72.04
24302;BME280;12421;49.732;20.078;2024-02-23T12:07:50;95387.52;;;11.44;71.41
24302;BME280;12421;49.732;20.078;2024-02-23T12:17:58;95398.38;;;11.36;71.57
24302;BME280;12421;49.732;20.078;2024-02-23T12:28:03;95402.09;;;11.16;71.37
24302;BME280;12421;49.732;20.078;2024-02-23T12:38:06;95404.02;;;11.02;71.89
24302;BME280;12421;49.732;20.078;2024-02-23T12:48:10;95416.23;;;11.28;72.17
24302;BME280;12421;49.732;20.078;2024-02-23T12:58:14;95419.16;;;11.35;72.49
24302;BME280;12421;49.732;20.078;2024-02-23T13:08:17;95420.02;;;11.58;72.83
24302;BME280;12421;49.732;20.078;2024-02-23T13:18:20;95433.00;;;11.77;73.23
24302;BME280;12421;49.732;20.078;2024-02-23T13:28:23;95426.40;;;11.70;72.34
24302;BME280;12421;49.732;20.078;2024-02-23T13:38:27;95431.23;;;11.59;71.93
24302;BME280;12421;49.732;20.078;2024-02-23T13:48:30;95450.02;;;11.36;73.39
24302;BME280;12421;49.732;20.078;2024-02-23T13:58:34;95452.52;;;11.21;74.16
24302;BME280;12421;49.732;20.078;2024-02-23T14:08:37;95448.04;;;11.04;72.79
24302;BME280;12421;49.732;20.078;2024-02-23T14:18:41;95452.20;;;10.91;73.04
24302;BME280;12421;49.732;20.078;2024-02-23T14:28:47;95454.65;;;10.66;74.87
24302;BME280;12421;49.732;20.078;2024-02-23T14:38:54;95438.08;;;10.64;75.49
24302;BME280;12421;49.732;20.078;2024-02-23T14:48:57;95442.08;;;10.70;76.16
24302;BME280;12421;49.732;20.078;2024-02-23T14:59:01;95457.27;;;10.72;76.38
24302;BME280;12421;49.732;20.078;2024-02-23T15:09:05;95459.11;;;10.54;76.45
24302;BME280;12421;49.732;20.078;2024-02-23T15:19:08;95458.06;;;10.40;76.29
24302;BME280;12421;49.732;20.078;2024-02-23T15:29:11;95475.72;;;10.20;76.53
24302;BME280;12421;49.732;20.078;2024-02-23T15:39:16;95489.04;;;10.09;76.97
24302;BME280;12421;49.732;20.078;2024-02-23T15:49:19;95488.17;;;9.86;77.55
24302;BME280;12421;49.732;20.078;2024-02-23T15:59:42;95496.40;;;9.81;78.44
24302;BME280;12421;49.732;20.078;2024-02-23T16:09:46;95500.64;;;9.80;78.33
24302;BME280;12421;49.732;20.078;2024-02-23T16:19:49;95521.87;;;9.56;78.35
24302;BME280;12421;49.732;20.078;2024-02-23T16:29:53;95531.86;;;9.38;78.88
24302;BME280;12421;49.732;20.078;2024-02-23T16:39:56;95518.64;;;9.23;79.19
24302;BME280;12421;49.732;20.078;2024-02-23T16:49:59;95505.63;;;8.74;79.98
24302;BME280;12421;49.732;20.078;2024-02-23T17:00:04;95494.29;;;8.47;80.85
24302;BME280;12421;49.732;20.078;2024-02-23T17:10:08;95494.29;;;8.26;81.45
24302;BME280;12421;49.732;20.078;2024-02-23T17:20:12;95507.38;;;8.19;81.86
24302;BME280;12421;49.732;20.078;2024-02-23T17:30:18;95525.42;;;8.17;81.84
24302;BME280;12421;49.732;20.078;2024-02-23T17:40:22;95528.69;;;8.05;81.94
24302;BME280;12421;49.732;20.078;2024-02-23T17:50:25;95537.48;;;7.88;82.54
24302;BME280;12421;49.732;20.078;2024-02-23T18:00:30;95523.36;;;7.86;82.44
24302;BME280;12421;49.732;20.078;2024-02-23T18:10:33;95500.14;;;7.56;82.78
24302;BME280;12421;49.732;20.078;2024-02-23T18:20:37;95497.40;;;7.30;84.31
24302;BME280;12421;49.732;20.078;2024-02-23T18:30:40;95512.16;;;7.25;84.38
24302;BME280;12421;49.732;20.078;2024-02-23T18:40:45;95515.09;;;7.34;84.35
24302;BME280;12421;49.732;20.078;2024-02-23T18:50:48;95524.98;;;7.37;84.05
24302;BME280;12421;49.732;20.078;2024-02-23T19:00:52;95537.50;;;7.31;83.63
24302;BME280;12421;49.732;20.078;2024-02-23T19:11:00;95513.66;;;7.12;83.65
24302;BME280;12421;49.732;20.078;2024-02-23T19:21:04;95502.60;;;6.89;84.13
24302;BME280;12421;49.732;20.078;2024-02-23T19:31:07;95512.55;;;6.79;84.84
24302;BME280;12421;49.732;20.078;2024-02-23T19:41:11;95510.52;;;6.57;85.11
24302;BME280;12421;49.732;20.078;2024-02-23T19:51:16;95504.41;;;6.38;85.64
24302;BME280;12421;49.732;20.078;2024-02-23T20:01:20;95505.91;;;6.43;86.09
24302;BME280;12421;49.732;20.078;2024-02-23T20:11:24;95498.96;;;6.41;86.28
24302;BME280;12421;49.732;20.078;2024-02-23T20:21:30;95490.69;;;6.27;86.65
24302;BME280;12421;49.732;20.078;2024-02-23T20:31:34;95480.67;;;6.21;86.98
24302;BME280;12421;49.732;20.078;2024-02-23T20:41:41;95482.11;;;6.29;86.67
24302;BME280;12421;49.732;20.078;2024-02-23T20:51:44;95471.35;;;6.26;86.86
24302;BME280;12421;49.732;20.078;2024-02-23T21:01:51;95446.15;;;6.32;87.01
24302;BME280;12421;49.732;20.078;2024-02-23T21:11:54;95442.23;;;6.37;87.10
24302;BME280;12421;49.732;20.078;2024-02-23T21:21:58;95445.35;;;6.37;87.28
24302;BME280;12421;49.732;20.078;2024-02-23T21:32:35;95445.58;;;6.34;87.60
24302;BME280;12421;49.732;20.078;2024-02-23T21:42:38;95448.73;;;6.43;88.63
24302;BME280;12421;49.732;20.078;2024-02-23T21:52:45;95468.77;;;6.89;87.78
24302;BME280;12421;49.732;20.078;2024-02-23T22:02:48;95470.89;;;7.44;85.24
24302;BME280;12421;49.732;20.078;2024-02-23T22:12:54;95460.66;;;8.00;83.20
24302;BME280;12421;49.732;20.078;2024-02-23T22:22:57;95450.86;;;8.29;81.56
24302;BME280;12421;49.732;20.078;2024-02-23T22:33:00;95442.08;;;8.51;81.00
24302;BME280;12421;49.732;20.078;2024-02-23T22:43:04;95441.55;;;8.64;79.59
24302;BME280;12421;49.732;20.078;2024-02-23T22:53:07;95453.50;;;8.93;78.03
24302;BME280;12421;49.732;20.078;2024-02-23T23:03:12;95458.20;;;9.24;76.04
24302;BME280;12421;49.732;20.078;2024-02-23T23:13:16;95424.58;;;9.36;75.87
24302;BME280;12421;49.732;20.078;2024-02-23T23:23:22;95410.01;;;9.19;75.45
24302;BME280;12421;49.732;20.078;2024-02-23T23:33:25;95403.02;;;8.89;76.00
24302;BME280;12421;49.732;20.078;2024-02-23T23:43:29;95401.10;;;8.72;77.01
24302;BME280;12421;49.732;20.078;2024-02-23T23:53:32;95382.33;;;8.85;76.46
